• Join FlightAware (Why Join?)
  • Login
  • US Flag 
07:28PM EDT


 

Airport Tracker/Info


-or-


 

Live Flight TrackerFlight Track Log ✈ ASA525 ✈ 24-Jul-2013 ✈ KBUR - KSEA

Flight Track Log - Related Links

Times and Time Zones

All times are in EDT time to prevent confusion due to time zone crossing. See the ASA525 flight status page for this flight to view local times or setup timezone preferences in your user account.

Time Position Orientation Groundspeed Altitude Reporting Facility
EDT Latitude Longitude Course Direction KTS MPH feet Rate Location/Type
02:15PM 34.1667 -118.3667 251° West 174 200 2,500  Level Southern California TRACON
02:16PM 34.1492 -118.4294 251° West 200 230 4,900 1,860 Climbing Los Angeles Center
02:17PM 34.1761 -118.5019 294° West 237 273 6,700 2,040 Climbing Los Angeles Center
02:18PM 34.2469 -118.5411 335° Northwest 278 320 9,200 2,820 Climbing Los Angeles Center
02:19PM 34.3367 -118.5931 334° Northwest 298 343 12,600 2,880 Climbing Los Angeles Center
02:20PM 34.4189 -118.6378 336° Northwest 323 372 15,200 2,220 Climbing Los Angeles Center
02:21PM 34.5111 -118.6897 335° Northwest 366 421 17,300 2,160 Climbing Los Angeles Center
02:22PM 34.6100 -118.7467 335° Northwest 390 449 19,700 1,740 Climbing Los Angeles Center
02:23PM 34.7117 -118.8094 333° Northwest 407 468 21,000 1,440 Climbing Los Angeles Center
02:25PM 34.8167 -118.8689 335° Northwest 414 476 22,700 1,920 Climbing Los Angeles Center
02:26PM 34.9408 -118.9144 343° North 427 491 25,000 1,560 Climbing Los Angeles Center
02:27PM 35.0586 -118.9603 342° North 443 510 26,000 600 Climbing Los Angeles Center
02:28PM 35.2031 -119.0164 342° North 454 522 26,300 1,020 Climbing Los Angeles Center
02:29PM 35.3275 -119.0633 343° North 463 533 28,200 1,680 Climbing Los Angeles Center
02:30PM 35.4553 -119.1133 342° North 477 549 29,900 1,500 Climbing Los Angeles Center
02:31PM 35.5844 -119.1650 342° North 488 562 31,400 1,620 Climbing Los Angeles Center
02:32PM 35.7181 -119.2031 347° North 492 566 33,300 1,800 Climbing Los Angeles Center
02:33PM 35.8769 -119.2508 346° North 504 580 35,200 1,260 Climbing Oakland Center
02:34PM 36.0103 -119.2903 347° North 497 572 36,000 360 Climbing Oakland Center
02:35PM 36.1372 -119.3247 348° North 480 552 36,000  Level Oakland Center
02:36PM 36.2650 -119.3622 347° North 477 549 36,000  Level Oakland Center
02:37PM 36.3925 -119.3997 347° North 474 545 36,000  Level Oakland Center
02:38PM 36.5453 -119.4450 347° North 472 543 36,000 480 Level Oakland Center
02:39PM 36.6731 -119.4831 347° North 473 544 37,000 1,260 Climbing Oakland Center
02:40PM 36.7994 -119.5219 346° North 469 540 38,600 1,200 Climbing Oakland Center
02:41PM 36.9239 -119.5581 347° North 462 532 39,500 660 Climbing Oakland Center
02:42PM 37.0500 -119.5964 346° North 465 535 40,000 240 Climbing Oakland Center
02:43PM 37.1767 -119.6325 347° North 468 539 40,000  Level Oakland Center
02:44PM 37.3036 -119.6714 346° North 469 540 40,000  Level Oakland Center
02:45PM 37.4417 -119.7156 346° North 467 537 40,000  Level Oakland Center
02:46PM 37.5694 -119.7525 347° North 470 541 40,000  Level Oakland Center
02:47PM 37.6953 -119.7911 346° North 468 539 40,000  Level Oakland Center
02:48PM 37.8442 -119.8364 346° North 464 534 40,000  Level Oakland Center
02:49PM 37.9681 -119.8758 346° North 460 529 40,000  Level Oakland Center
02:50PM 38.0936 -119.9142 346° North 461 531 40,000  Level Oakland Center
02:51PM 38.2147 -119.9533 346° North 459 528 40,000  Level Oakland Center
02:52PM 38.3411 -119.9906 347° North 459 528 40,000  Level Oakland Center
02:53PM 38.4617 -120.0294 346° North 464 534 40,000  Level Oakland Center
02:54PM 38.5919 -120.0697 346° North 467 537 40,000  Level Oakland Center
02:55PM 38.7389 -120.1158 346° North 459 528 40,000  Level Oakland Center
02:56PM 38.8625 -120.1553 346° North 462 532 40,000  Level Oakland Center
02:57PM 38.9906 -120.1961 346° North 466 536 40,000  Level Oakland Center
02:59PM 39.1156 -120.2356 346° North 467 537 40,000  Level Oakland Center
03:00PM 39.2400 -120.2758 346° North 466 536 40,000  Level Oakland Center
03:01PM 39.3656 -120.3156 346° North 466 536 40,000  Level Oakland Center
03:02PM 39.4917 -120.3569 346° North 465 535 40,000  Level Oakland Center
03:03PM 39.6417 -120.4064 346° North 464 534 40,000  Level Oakland Center
03:04PM 39.7664 -120.4450 347° North 466 536 40,000  Level Oakland Center
03:05PM 39.8897 -120.4844 346° North 461 531 40,000  Level Oakland Center
03:06PM 40.0131 -120.5247 346° North 459 528 40,000  Level Oakland Center
03:07PM 40.1364 -120.5656 346° North 459 528 40,000  Level Oakland Center
03:08PM 40.2611 -120.6067 346° North 461 531 40,000  Level Oakland Center
03:09PM 40.4092 -120.6556 346° North 461 531 40,000  Level Oakland Center
03:10PM 40.5350 -120.6978 346° North 463 533 40,000  Level Oakland Center
03:11PM 40.6606 -120.7406 346° North 460 529 40,000  Level Seattle Center
03:12PM 40.7836 -120.7808 346° North 460 529 40,000  Level Seattle Center
03:13PM 40.9064 -120.8239 345° North 457 526 40,000  Level Seattle Center
03:14PM 41.0292 -120.8653 346° North 455 524 40,000  Level Seattle Center
03:15PM 41.1506 -120.9078 345° North 454 522 40,000  Level Seattle Center
03:16PM 41.2994 -120.9567 346° North 457 526 40,000  Level Seattle Center
03:17PM 41.4228 -120.9986 346° North 458 527 40,000  Level Seattle Center
03:18PM 41.5450 -121.0419 345° North 458 527 40,000  Level Seattle Center
03:19PM 41.6683 -121.0836 346° North 459 528 40,000  Level Seattle Center
03:20PM 41.7922 -121.1264 346° North 461 531 40,000  Level Seattle Center
03:21PM 41.9158 -121.1694 345° North 462 532 40,000  Level Seattle Center
03:22PM 42.0403 -121.2142 345° North 468 539 40,000  Level Seattle Center
03:23PM 42.1889 -121.2644 346° North 462 532 40,000  Level Seattle Center
03:24PM 42.3131 -121.3083 345° North 464 534 40,000  Level Seattle Center
03:25PM 42.4353 -121.3522 345° North 460 529 40,000  Level Seattle Center
03:26PM 42.5583 -121.3958 345° North 460 529 40,000  Level Seattle Center
03:27PM 42.6803 -121.4392 345° North 455 524 40,000  Level Seattle Center
03:28PM 42.8025 -121.4856 344° North 458 527 40,000  Level Seattle Center
03:29PM 42.9233 -121.5278 346° North 453 521 40,000  Level Seattle Center
03:30PM 43.0692 -121.5811 345° North 455 524 40,000  Level Seattle Center
03:31PM 43.1911 -121.6253 345° North 454 522 40,000  Level Seattle Center
03:32PM 43.3158 -121.6700 345° North 461 531 40,000  Level Seattle Center
03:33PM 43.4400 -121.7156 345° North 463 533 40,000  Level Seattle Center
03:34PM 43.5650 -121.7608 345° North 464 534 40,000  Level Seattle Center
03:35PM 43.6894 -121.8081 345° North 465 535 40,000  Level Seattle Center
03:36PM 43.8303 -121.8586 345° North 464 534 40,000  Level Seattle Center
03:37PM 43.9503 -121.8992 346° North 469 540 40,000  Level Seattle Center
03:39PM 44.0744 -121.9447 345° North 466 536 40,000  Level Seattle Center
03:40PM 44.1986 -121.9919 345° North 465 535 40,000  Level Seattle Center
03:41PM 44.3236 -122.0394 345° North 467 537 40,000  Level Seattle Center
03:43PM 44.5981 -122.1431 345° North 467 537 40,000  Level Seattle Center
03:44PM 44.7069 -122.2272 331° Northwest 460 529 40,000  Level Seattle Center
03:45PM 44.7975 -122.3433 318° Northwest 446 513 40,000  Level Seattle Center
03:46PM 44.8847 -122.4553 318° Northwest 442 509 40,000 -360 Level Seattle Center
03:47PM 44.9761 -122.5689 319° Northwest 440 506 39,300 -900 Descending Seattle Center
03:48PM 45.0672 -122.6853 318° Northwest 444 511 38,200 -1,080 Descending Seattle Center
03:49PM 45.1594 -122.7997 319° Northwest 444 511 37,100 -600 Descending Seattle Center
03:50PM 45.3058 -122.8153 356° North 474 545 37,000 -60 Descending Seattle Center
03:51PM 45.4300 -122.7500 20° North 478 550 37,000  Level Seattle Center
03:52PM 45.5569 -122.6878 19° North 482 555 37,000 -300 Level Seattle Center
03:53PM 45.6839 -122.6236 19° North 487 560 36,400 -1,920 Descending Seattle Center
03:54PM 45.8117 -122.6050 North 473 544 33,100 -3,360 Descending Seattle Center
03:55PM 45.9392 -122.6367 350° North 467 537 29,600 -2,820 Descending Seattle Center
03:56PM 46.0636 -122.6714 349° North 461 531 27,400 -2,040 Descending Seattle Center
03:57PM 46.1789 -122.6961 352° North 429 494 25,500 -2,100 Descending Seattle Center
03:58PM 46.3019 -122.7175 353° North 411 473 23,100 -2,280 Descending Seattle Center
03:59PM 46.4117 -122.7203 359° North 402 463 20,900 -2,400 Descending Seattle Center
04:00PM 46.4992 -122.7172 North 386 444 19,100 -2,340 Descending Seattle Center
04:01PM 46.6044 -122.7125 North 376 433 17,000 -2,160 Descending Seattle Center
04:02PM 46.7208 -122.7081 North 363 418 14,600 -1,980 Descending Seattle Center
04:03PM 46.8175 -122.6953 North 348 400 12,900 -1,860 Descending Seattle Center
04:04PM 46.8861 -122.6064 42° Northeast 331 381 10,900 -1,500 Descending Seattle Center
04:05PM 46.9450 -122.5325 41° Northeast 300 345 10,000 -1,260 Descending Seattle Center
04:06PM 47.0133 -122.4433 42° Northeast 278 320 8,400 -1,260 Descending Seattle Center
04:07PM 47.0753 -122.3903 30° Northeast 247 284 7,400 -1,080 Descending Seattle Center
04:08PM 47.1303 -122.3439 30° Northeast 224 258 6,300 -1,020 Descending Seattle Center
04:09PM 47.1836 -122.3178 18° North 208 239 5,400 -900 Descending Seattle Center
04:10PM 47.2464 -122.3194 359° North 186 214 4,500 -900 Descending Seattle Center
04:11PM 47.2892 -122.3219 358° North 185 213 3,600 -960 Descending Seattle Center
04:12PM 47.3444 -122.3211 North 182 209 2,700 -1,140 Descending Seattle Center
04:13PM 47.3839 -122.3189 North 149 171 1,400 -1,020 Descending Seattle Center
04:14PM 47.4242 -122.3197 359° North 136 157 700 -480 Descending Seattle Center
04:15PM 47.4744 -122.3192 360° North 139 160 300 -300 Descending Seattle Center
04:17PM 47.4499 -122.3118 132° Southeast  Level Estimated